Time;durP1;ratioP1;P1;durP2;ratioP2;P2;SDS_P1;SDS_P2;PMS_P1;PMS_P2;Temp;Humidity;BMP_temperature;BMP_pressure;BME280_temperature;BME280_humidity;BME280_pressure;Samples;Min_cycle;Max_cycle;Signal;HPM_P1;HPM_P2
2022/09/05 00:00:43;;;;;;;15.90;6.50;;;;;;;12.01;56.40;99858.21;105268;1284;98231;-65
2022/09/05 00:03:51;;;;;;;16.10;7.00;;;;;;;12.03;56.43;99858.77;105854;1276;106402;-65
2022/09/05 00:06:51;;;;;;;13.60;6.50;;;;;;;12.06;56.55;99857.17;105865;1276;99315;-64
2022/09/05 00:09:36;;;;;;;15.40;6.50;;;;;;;12.06;56.56;99857.70;105773;1276;98344;-65
2022/09/05 00:12:26;;;;;;;17.80;6.70;;;;;;;12.05;56.59;99857.92;105875;1276;111546;-62
2022/09/05 00:15:38;;;;;;;14.50;6.40;;;;;;;12.05;56.58;99855.66;105895;1276;99248;-65
2022/09/05 00:19:11;;;;;;;14.00;6.30;;;;;;;12.03;56.79;99854.90;105852;1276;108181;-63
2022/09/05 00:22:45;;;;;;;16.80;7.20;;;;;;;12.01;56.84;99853.80;105285;1282;99234;-66
2022/09/05 00:26:01;;;;;;;13.00;6.00;;;;;;;12.00;56.91;99852.45;105424;1276;99434;-66
2022/09/05 00:29:05;;;;;;;14.90;6.60;;;;;;;11.95;56.95;99851.66;105889;1276;114137;-65
2022/09/05 00:32:17;;;;;;;16.50;6.80;;;;;;;11.92;57.11;99847.04;105989;1276;99180;-64
2022/09/05 00:35:13;;;;;;;16.50;6.70;;;;;;;11.89;57.13;99848.81;105927;1276;106436;-64
2022/09/05 00:38:17;;;;;;;16.90;7.30;;;;;;;11.91;57.16;99848.39;105921;1276;99313;-65
2022/09/05 00:41:12;;;;;;;16.00;7.20;;;;;;;11.87;57.25;99841.33;105948;1276;99259;-65
2022/09/05 00:44:01;;;;;;;20.20;8.50;;;;;;;11.84;57.30;99841.52;105850;1277;114154;-64
2022/09/05 00:47:38;;;;;;;20.00;8.20;;;;;;;11.83;57.45;99833.61;105849;1277;96633;-65
2022/09/05 00:50:54;;;;;;;20.50;7.90;;;;;;;11.81;57.20;99826.10;105911;1276;109429;-66
2022/09/05 00:53:59;;;;;;;19.20;8.40;;;;;;;11.78;57.68;99828.09;105929;1276;99307;-67
2022/09/05 00:57:29;;;;;;;18.10;7.90;;;;;;;11.80;57.83;99830.23;106029;1277;99308;-64
2022/09/05 01:00:22;;;;;;;20.60;7.90;;;;;;;11.84;57.80;99828.94;105779;1277;114170;-66
2022/09/05 01:03:33;;;;;;;16.90;7.60;;;;;;;11.83;57.92;99831.44;105971;1277;99090;-66
2022/09/05 01:07:03;;;;;;;19.90;7.80;;;;;;;11.83;57.83;99828.29;105879;1276;109261;-66
2022/09/05 01:10:19;;;;;;;19.30;8.00;;;;;;;11.81;58.01;99832.34;105917;1276;99237;-66
2022/09/05 01:13:41;;;;;;;17.40;7.40;;;;;;;11.80;58.03;99834.89;105904;1277;99267;-65
2022/09/05 01:16:55;;;;;;;16.90;7.50;;;;;;;11.76;58.10;99837.26;105951;1276;112117;-66
2022/09/05 01:19:43;;;;;;;16.20;7.10;;;;;;;11.72;58.21;99836.97;105664;1277;99231;-66
2022/09/05 01:22:47;;;;;;;18.40;7.70;;;;;;;11.69;58.12;99836.64;105962;1275;106674;-67
2022/09/05 01:25:45;;;;;;;20.00;7.50;;;;;;;11.63;58.13;99838.11;105966;1275;99728;-65
2022/09/05 01:29:00;;;;;;;14.90;6.60;;;;;;;11.57;58.29;99836.88;105961;1276;99361;-63
2022/09/05 01:32:21;;;;;;;18.10;6.40;;;;;;;11.54;58.25;99839.73;105948;1276;114189;-66
2022/09/05 01:35:24;;;;;;;14.90;6.60;;;;;;;11.50;58.38;99840.33;105879;1276;99385;-66
2022/09/05 01:38:25;;;;;;;17.20;7.00;;;;;;;11.46;58.34;99841.29;105847;1276;109180;-63
2022/09/05 01:41:38;;;;;;;14.00;6.60;;;;;;;11.42;58.24;99842.45;105856;1276;99218;-64
2022/09/05 01:45:03;;;;;;;17.80;6.60;;;;;;;11.38;58.33;99838.29;105836;1276;99229;-66
2022/09/05 01:48:04;;;;;;;16.40;6.60;;;;;;;11.30;58.43;99841.91;105834;1276;113021;-66
2022/09/05 01:51:20;;;;;;;20.60;6.90;;;;;;;11.25;58.51;99837.28;105862;1276;96727;-68
2022/09/05 01:54:33;;;;;;;18.00;6.60;;;;;;;11.20;58.47;99835.29;105842;1276;106447;-63
2022/09/05 01:57:55;;;;;;;18.30;7.40;;;;;;;11.14;58.50;99835.48;105831;1276;99231;-68
2022/09/05 02:01:04;;;;;;;16.50;6.90;;;;;;;11.08;58.51;99840.13;105870;1276;99377;-65
2022/09/05 02:04:19;;;;;;;18.30;7.60;;;;;;;10.99;58.43;99840.66;105767;1279;114128;-64
2022/09/05 02:07:36;;;;;;;14.50;6.40;;;;;;;10.90;58.51;99841.73;105875;1276;98372;-65
2022/09/05 02:11:02;;;;;;;14.70;6.60;;;;;;;10.85;58.65;99844.18;105948;1277;106870;-64
2022/09/05 02:14:07;;;;;;;13.50;6.40;;;;;;;10.79;58.70;99845.31;105987;1277;99336;-66
2022/09/05 02:17:05;;;;;;;16.00;6.40;;;;;;;10.74;58.81;99844.33;105875;1277;99228;-66
2022/09/05 02:20:20;;;;;;;16.50;6.90;;;;;;;10.67;58.83;99844.38;105775;1277;111550;-65
2022/09/05 02:23:16;;;;;;;14.00;6.30;;;;;;;10.64;58.79;99843.70;105859;1276;99261;-67
2022/09/05 02:26:51;;;;;;;15.20;6.70;;;;;;;10.61;58.97;99844.04;105850;1277;107851;-65
2022/09/05 02:29:56;;;;;;;16.60;6.90;;;;;;;10.60;59.10;99846.44;105835;1277;99375;-64
2022/09/05 02:32:54;;;;;;;;;;;;;;;10.57;58.99;99851.02;105826;1277;96627;-66
2022/09/05 02:36:15;;;;;;;14.80;6.80;;;;;;;10.48;59.10;99851.21;105951;1276;114163;-64
2022/09/05 02:39:27;;;;;;;18.50;6.70;;;;;;;10.45;59.16;99847.51;105783;1277;99219;-67
2022/09/05 02:42:48;;;;;;;19.00;7.10;;;;;;;10.41;59.23;99851.96;105820;1278;109204;-66
2022/09/05 02:46:18;;;;;;;17.00;6.80;;;;;;;10.40;59.28;99855.71;105911;1276;99192;-68
2022/09/05 02:49:17;;;;;;;15.00;7.10;;;;;;;10.41;59.31;99854.98;105888;1277;99199;-67
2022/09/05 02:52:29;;;;;;;17.50;6.80;;;;;;;10.39;59.27;99858.45;105896;1276;114207;-64
2022/09/05 02:55:55;;;;;;;16.00;6.40;;;;;;;10.37;59.37;99855.58;105883;1276;99275;-67
2022/09/05 02:59:09;;;;;;;17.40;7.30;;;;;;;10.31;59.39;99853.77;105894;1276;109227;-67
2022/09/05 03:02:29;;;;;;;13.50;6.20;;;;;;;10.27;59.46;99854.73;105886;1276;99314;-66
2022/09/05 03:05:24;;;;;;;14.00;6.50;;;;;;;10.22;59.60;99856.94;105897;1275;99264;-67
2022/09/05 03:08:22;;;;;;;15.20;6.70;;;;;;;10.22;59.55;99862.99;105881;1276;114180;-66
2022/09/05 03:12:02;;;;;;;14.40;6.40;;;;;;;10.19;59.58;99869.89;105938;1276;99251;-66
2022/09/05 03:15:45;;;;;;;16.10;7.20;;;;;;;10.11;59.63;99865.90;105926;1276;109231;-65
2022/09/05 03:18:42;;;;;;;14.10;6.30;;;;;;;10.07;59.68;99864.58;105827;1276;99265;-65
2022/09/05 03:21:57;;;;;;;17.50;7.10;;;;;;;10.03;59.64;99864.08;105862;1276;97742;-66
2022/09/05 03:25:24;;;;;;;14.90;6.50;;;;;;;9.98;59.71;99864.02;105908;1276;114131;-66
2022/09/05 03:28:45;;;;;;;14.80;6.80;;;;;;;9.95;59.86;99865.39;105814;1276;97864;-67
2022/09/05 03:32:09;;;;;;;17.50;7.40;;;;;;;9.94;59.93;99869.92;105761;1276;106434;-66
2022/09/05 03:35:14;;;;;;;15.40;7.10;;;;;;;9.90;60.02;99874.38;105800;1276;99310;-64
2022/09/05 03:38:38;;;;;;;18.10;7.00;;;;;;;9.91;60.00;99878.76;105844;1276;99240;-64
2022/09/05 03:41:54;;;;;;;16.70;7.80;;;;;;;9.91;60.06;99885.11;105925;1276;111659;-67
2022/09/05 03:44:47;;;;;;;20.40;9.10;;;;;;;9.89;60.06;99892.35;105950;1276;99269;-64
2022/09/05 03:47:35;;;;;;;;;;;;;;;9.84;60.07;99896.34;105880;1276;109164;-65
2022/09/05 03:50:29;;;;;;;16.90;8.50;;;;;;;9.78;60.09;99895.05;105775;1276;99148;-65
2022/09/05 03:54:02;;;;;;;20.00;8.70;;;;;;;9.73;60.03;99896.94;103257;1276;3586090;-67
2022/09/05 03:57:20;;;;;;;16.70;7.60;;;;;;;9.67;60.17;99896.73;105779;1277;99305;-65
2022/09/05 04:00:35;;;;;;;17.90;7.80;;;;;;;9.65;60.22;99900.20;105829;1276;106376;-65
2022/09/05 04:03:39;;;;;;;16.40;7.30;;;;;;;9.64;60.22;99902.40;105942;1276;99124;-64
2022/09/05 04:06:56;;;;;;;16.70;7.90;;;;;;;9.64;60.38;99905.91;105922;1276;96671;-65
2022/09/05 04:10:09;;;;;;;17.00;7.70;;;;;;;9.63;60.38;99902.77;105900;1276;113126;-65
2022/09/05 04:13:16;;;;;;;16.80;8.70;;;;;;;9.64;60.39;99905.23;105913;1276;98312;-64
2022/09/05 04:16:14;;;;;;;18.80;8.60;;;;;;;9.64;60.48;99910.17;105725;1276;107942;-63
2022/09/05 04:19:13;;;;;;;20.10;9.30;;;;;;;9.66;60.44;99912.38;105857;1276;99142;-65
2022/09/05 04:22:09;;;;;;;17.00;7.90;;;;;;;9.67;60.64;99909.12;105853;1276;99116;-65
2022/09/05 04:25:06;;;;;;;19.40;9.00;;;;;;;9.67;60.66;99906.30;105894;1276;111425;-63
2022/09/05 04:28:13;;;;;;;22.00;9.20;;;;;;;9.68;60.76;99908.71;105832;1276;99237;-65
2022/09/05 04:31:28;;;;;;;21.80;9.40;;;;;;;9.70;60.84;99907.25;105824;1276;109198;-65
2022/09/05 04:34:41;;;;;;;18.10;8.10;;;;;;;9.71;60.79;99908.55;105871;1278;99224;-65
2022/09/05 04:37:45;;;;;;;17.20;8.10;;;;;;;9.70;60.90;99913.40;106033;1276;99298;-65
2022/09/05 04:40:59;;;;;;;16.30;8.00;;;;;;;9.71;60.92;99913.67;105938;1276;114194;-62
2022/09/05 04:44:02;;;;;;;20.90;8.40;;;;;;;9.74;61.13;99909.84;105858;1278;99226;-61
2022/09/05 04:47:02;;;;;;;22.70;9.10;;;;;;;9.76;61.15;99912.19;105802;1277;106433;-62
2022/09/05 04:50:00;;;;;;;18.10;8.00;;;;;;;9.79;61.24;99911.83;105784;1277;99304;-63
2022/09/05 04:53:32;;;;;;;18.00;8.60;;;;;;;9.83;61.31;99911.05;105772;1278;99199;-65
2022/09/05 04:56:26;;;;;;;18.90;8.70;;;;;;;9.90;61.44;99922.80;105070;1285;111522;-63
2022/09/05 04:59:25;;;;;;;22.10;9.60;;;;;;;9.93;61.43;99922.06;105819;1277;98345;-63
2022/09/05 05:02:56;;;;;;;23.20;9.20;;;;;;;9.96;61.50;99927.35;105908;1277;109161;-65
2022/09/05 05:06:14;;;;;;;18.40;9.50;;;;;;;10.02;61.68;99927.89;105966;1276;99301;-67
2022/09/05 05:09:44;;;;;;;18.00;8.50;;;;;;;10.07;61.60;99934.56;105958;1277;99307;-66
2022/09/05 05:13:03;;;;;;;21.90;8.80;;;;;;;10.11;61.56;99941.08;105734;1278;111539;-66
2022/09/05 05:16:25;;;;;;;20.70;8.30;;;;;;;10.16;61.69;99940.10;105935;1276;99254;-62
2022/09/05 05:19:59;;;;;;;20.00;9.10;;;;;;;10.20;61.80;99944.79;105914;1276;106430;-64
2022/09/05 05:23:07;;;;;;;18.90;8.80;;;;;;;10.26;61.83;99950.88;105985;1276;99229;-65
2022/09/05 05:26:00;;;;;;;18.30;8.80;;;;;;;10.32;61.99;99955.31;105993;1276;96551;-64
2022/09/05 05:29:00;;;;;;;18.80;8.10;;;;;;;10.39;61.92;99955.30;106002;1276;111422;-66
2022/09/05 05:31:58;;;;;;;16.70;8.10;;;;;;;10.45;62.13;99954.25;105976;1278;99273;-64
2022/09/05 05:34:55;;;;;;;18.10;8.50;;;;;;;10.53;62.11;99953.98;105932;1279;109186;-64
2022/09/05 05:38:17;;;;;;;18.50;8.60;;;;;;;10.60;62.22;99952.84;105855;1279;99227;-64
2022/09/05 05:41:21;;;;;;;15.50;8.10;;;;;;;10.68;62.30;99955.02;105960;1279;99232;-63
2022/09/05 05:44:15;;;;;;;17.10;8.30;;;;;;;10.76;62.49;99958.31;105999;1276;114157;-65
2022/09/05 05:47:19;;;;;;;19.70;11.30;;;;;;;10.84;62.61;99964.54;106090;1275;99242;-64
2022/09/05 05:50:29;;;;;;;21.70;13.40;;;;;;;10.93;62.55;99967.21;106042;1275;109185;-63
2022/09/05 05:53:24;;;;;;;24.70;16.00;;;;;;;11.02;62.63;99967.77;105952;1277;99994;-64
2022/09/05 05:56:32;;;;;;;25.40;15.50;;;;;;;11.11;62.78;99973.44;105963;1277;99119;-65
2022/09/05 05:59:33;;;;;;;25.10;18.20;;;;;;;11.20;62.74;99975.23;105893;1277;114170;-64
2022/09/05 06:02:42;;;;;;;26.40;17.30;;;;;;;11.29;62.89;99972.69;105950;1277;96565;-65
2022/09/05 06:05:43;;;;;;;30.90;18.60;;;;;;;11.39;62.91;99974.05;105829;1278;106423;-64
2022/09/05 06:08:38;;;;;;;26.80;18.80;;;;;;;11.49;62.86;99973.41;106003;1276;99265;-66
2022/09/05 06:12:35;;;;;;;23.90;16.80;;;;;;;11.59;62.96;99976.73;106024;1277;99243;-62
2022/09/05 06:15:52;;;;;;;26.20;17.40;;;;;;;11.72;63.19;99971.51;106022;1276;115902;-64
2022/09/05 06:19:42;;;;;;;27.80;18.90;;;;;;;11.82;63.08;99970.69;105987;1276;99263;-66
2022/09/05 06:23:23;;;;;;;22.60;11.90;;;;;;;11.93;63.25;99969.95;105376;1277;106637;-65
2022/09/05 06:26:52;;;;;;;23.60;11.10;;;;;;;12.06;63.16;99972.35;105953;1277;99242;-63
2022/09/05 06:30:14;;;;;;;19.80;9.90;;;;;;;12.18;63.24;99972.84;106025;1276;96526;-65
2022/09/05 06:33:08;;;;;;;18.40;9.10;;;;;;;12.32;63.39;99973.23;105975;1276;111135;-64
2022/09/05 06:36:06;;;;;;;18.40;9.70;;;;;;;12.41;63.34;99979.58;105896;1279;99307;-64
2022/09/05 06:39:19;;;;;;;22.10;8.70;;;;;;;12.51;63.34;99980.84;105958;1276;109140;-64
2022/09/05 06:42:16;;;;;;;19.10;10.00;;;;;;;12.62;63.47;99982.80;105999;1276;99207;-65
2022/09/05 06:45:25;;;;;;;20.00;9.20;;;;;;;12.73;63.47;99984.75;106002;1276;99214;-63
2022/09/05 06:48:27;;;;;;;18.70;8.90;;;;;;;12.83;63.41;99987.81;105944;1277;111427;-64
2022/09/05 06:51:46;;;;;;;20.00;9.10;;;;;;;12.97;63.55;99994.23;105881;1278;99136;-63
2022/09/05 06:55:05;;;;;;;19.50;9.20;;;;;;;13.06;63.51;99997.46;105857;1279;106525;-65
2022/09/05 06:58:19;;;;;;;20.30;9.50;;;;;;;13.18;63.54;99998.83;105864;1279;96627;-66
2022/09/05 07:01:10;;;;;;;20.80;8.80;;;;;;;13.30;63.50;100000.88;106049;1277;99224;-65
2022/09/05 07:04:09;;;;;;;18.20;7.90;;;;;;;13.40;63.59;100006.62;106038;1276;111448;-66
2022/09/05 07:07:35;;;;;;;18.40;8.60;;;;;;;13.52;63.57;100008.80;105965;1277;96724;-65
2022/09/05 07:10:49;;;;;;;22.90;8.90;;;;;;;13.66;63.50;100007.81;105908;1278;105355;-66
2022/09/05 07:13:55;;;;;;;22.10;8.30;;;;;;;13.80;63.48;100008.31;105991;1277;99295;-65
2022/09/05 07:16:55;;;;;;;21.50;8.40;;;;;;;13.91;63.39;100008.20;106020;1276;96622;-65
2022/09/05 07:20:04;;;;;;;17.90;7.70;;;;;;;14.03;63.44;100009.73;105987;1276;114168;-64
2022/09/05 07:23:09;;;;;;;21.40;8.30;;;;;;;14.16;63.47;100009.67;106019;1276;98284;-64
2022/09/05 07:26:19;;;;;;;17.60;7.80;;;;;;;14.40;63.33;100005.73;105990;1276;106466;-64
2022/09/05 07:29:33;;;;;;;18.60;7.70;;;;;;;16.03;61.40;100002.20;105982;1276;98326;-63
2022/09/05 07:32:19;;;;;;;17.60;6.90;;;;;;;17.76;60.81;100002.20;105921;1276;99220;-63
2022/09/05 07:35:29;;;;;;;15.80;6.60;;;;;;;19.28;60.42;99996.89;105978;1278;111430;-66
2022/09/05 07:38:33;;;;;;;21.00;6.70;;;;;;;20.66;60.40;99994.26;105876;1278;99099;-65
2022/09/05 07:41:50;;;;;;;13.70;5.20;;;;;;;21.37;61.34;99994.84;105830;1279;106498;-65
2022/09/05 07:44:52;;;;;;;15.70;6.10;;;;;;;22.31;61.21;99989.95;105867;1278;96572;-65
2022/09/05 07:47:54;;;;;;;13.30;4.90;;;;;;;23.76;60.05;99993.19;105991;1277;99299;-64
2022/09/05 07:51:01;;;;;;;15.10;5.10;;;;;;;25.21;59.34;99997.75;105923;1277;111566;-65
2022/09/05 07:54:22;;;;;;;12.90;5.50;;;;;;;26.80;58.85;99993.76;105896;1277;99319;-65
2022/09/05 07:57:36;;;;;;;12.30;5.40;;;;;;;28.21;58.70;99993.20;105988;1276;106461;-63
2022/09/05 08:00:52;;;;;;;14.90;5.20;;;;;;;29.29;57.67;99994.86;106129;1277;99201;-66
2022/09/05 08:03:42;;;;;;;11.20;5.10;;;;;;;30.17;57.53;99996.59;106037;1276;99180;-65
2022/09/05 08:06:31;;;;;;;11.30;5.30;;;;;;;31.08;57.78;99995.34;105967;1277;111410;-64
2022/09/05 08:09:51;;;;;;;15.10;4.90;;;;;;;31.79;56.34;99991.06;105984;1277;99693;-64
2022/09/05 08:13:15;;;;;;;18.40;5.80;;;;;;;32.46;56.18;99992.11;105860;1279;109282;-65
2022/09/05 08:16:14;;;;;;;17.00;6.00;;;;;;;33.13;55.90;99989.03;105824;1278;99016;-67
2022/09/05 08:19:36;;;;;;;18.80;6.10;;;;;;;33.73;55.55;99990.73;105983;1279;99141;-65
2022/09/05 08:22:28;;;;;;;;;;;;;;;34.05;54.82;99990.82;105884;1278;111423;-64
2022/09/05 08:25:26;;;;;;;13.30;5.50;;;;;;;34.35;54.45;99985.39;105873;1279;98265;-65
2022/09/05 08:28:31;;;;;;;10.50;4.80;;;;;;;34.50;53.37;99983.77;105869;1278;109254;-64
2022/09/05 08:31:51;;;;;;;11.50;5.10;;;;;;;34.79;53.09;99982.81;105970;1277;99946;-66
2022/09/05 08:34:51;;;;;;;12.30;5.20;;;;;;;35.20;52.61;99976.46;105998;1276;99216;-66
2022/09/05 08:37:41;;;;;;;10.90;4.30;;;;;;;35.65;51.84;99974.52;105923;1277;114158;-66
2022/09/05 08:40:38;;;;;;;13.40;5.20;;;;;;;35.98;51.34;99971.40;106044;1277;97052;-65
2022/09/05 08:43:52;;;;;;;8.80;4.20;;;;;;;36.27;50.37;99968.91;106064;1277;108677;-65
2022/09/05 08:47:22;;;;;;;10.90;4.00;;;;;;;36.55;49.63;99967.16;106047;1276;99211;-69
2022/09/05 08:50:52;;;;;;;22.00;5.10;;;;;;;37.02;48.85;99964.95;105989;1277;99300;-66
2022/09/05 08:54:26;;;;;;;9.80;4.00;;;;;;;37.33;47.86;99962.44;106003;1278;114748;-67
2022/09/05 08:57:24;;;;;;;8.90;4.40;;;;;;;37.33;47.09;99957.89;105891;1277;97044;-65
2022/09/05 09:00:19;;;;;;;8.30;4.00;;;;;;;37.40;46.81;99955.77;105943;1277;109189;-66
2022/09/05 09:03:20;;;;;;;8.70;3.60;;;;;;;37.55;45.91;99951.10;105871;1277;99348;-66
2022/09/05 09:06:13;;;;;;;10.20;4.20;;;;;;;37.54;45.20;99949.70;105883;1277;99196;-66
2022/09/05 09:09:17;;;;;;;11.70;4.40;;;;;;;36.93;44.72;99948.90;105956;1277;114203;-65
2022/09/05 09:12:50;;;;;;;13.10;4.80;;;;;;;36.33;43.95;99940.45;106036;1276;99728;-66
2022/09/05 09:16:09;;;;;;;10.70;4.30;;;;;;;36.58;43.22;99941.65;105932;1279;106547;-65
2022/09/05 09:19:09;;;;;;;7.80;3.70;;;;;;;36.69;42.43;99935.80;105954;1279;99232;-65
2022/09/05 09:22:22;;;;;;;9.70;4.40;;;;;;;36.52;42.24;99931.33;105913;1276;99321;-66
2022/09/05 09:25:26;;;;;;;7.90;4.00;;;;;;;35.84;41.51;99937.85;106124;1277;114150;-65
2022/09/05 09:28:44;;;;;;;8.00;4.10;;;;;;;35.04;40.89;99929.48;105981;1277;100477;-64
2022/09/05 09:32:06;;;;;;;10.70;4.80;;;;;;;34.26;40.13;99927.12;106001;1277;109187;-65
2022/09/05 09:35:17;;;;;;;10.30;4.40;;;;;;;33.15;39.46;99931.13;105960;1279;99309;-66
2022/09/05 09:38:13;;;;;;;7.70;4.40;;;;;;;32.09;38.86;99933.91;106025;1278;96556;-65
2022/09/05 09:41:17;;;;;;;9.50;4.50;;;;;;;31.21;38.82;99936.98;106132;1277;114156;-64
2022/09/05 09:44:41;;;;;;;10.40;4.40;;;;;;;30.37;38.48;99934.98;106013;1277;99824;-66
2022/09/05 09:47:52;;;;;;;8.40;4.40;;;;;;;29.50;38.11;99943.30;106044;1276;106422;-61
2022/09/05 09:50:46;;;;;;;10.40;4.70;;;;;;;28.70;37.80;99945.48;105824;1276;99308;-64
2022/09/05 09:54:19;;;;;;;10.40;4.60;;;;;;;27.95;37.55;99944.00;106024;1276;99382;-65
2022/09/05 09:57:40;;;;;;;9.10;4.20;;;;;;;27.28;37.70;99940.88;105992;1277;114133;-66
2022/09/05 10:00:49;;;;;;;12.60;5.00;;;;;;;26.86;37.23;99943.53;106050;1276;99364;-67
2022/09/05 10:04:08;;;;;;;13.30;5.10;;;;;;;26.50;37.28;99940.92;106022;1277;106709;-67
2022/09/05 10:07:32;;;;;;;11.80;5.30;;;;;;;25.97;37.08;99939.83;105922;1277;96568;-64
2022/09/05 10:10:58;;;;;;;16.00;5.50;;;;;;;25.51;36.75;99935.00;106074;1277;99240;-65
2022/09/05 10:14:30;;;;;;;10.80;5.10;;;;;;;25.16;36.90;99931.47;106092;1277;114155;-64
2022/09/05 10:17:45;;;;;;;13.60;5.40;;;;;;;24.98;36.88;99926.00;106046;1277;99276;-66
2022/09/05 10:20:49;;;;;;;14.90;5.30;;;;;;;24.93;37.02;99925.92;106012;1277;109160;-64
2022/09/05 10:24:18;;;;;;;12.90;5.30;;;;;;;24.97;37.06;99919.45;106125;1277;99425;-63
2022/09/05 10:27:16;;;;;;;13.10;5.60;;;;;;;25.08;36.89;99917.77;106125;1277;99313;-64
2022/09/05 10:30:26;;;;;;;13.70;5.60;;;;;;;25.19;36.95;99913.96;106001;1277;113259;-64
2022/09/05 10:33:49;;;;;;;12.00;4.70;;;;;;;25.20;36.76;99908.33;105878;1278;99337;-65
2022/09/05 10:37:11;;;;;;;11.00;4.60;;;;;;;25.16;36.84;99906.55;105865;1278;106413;-65
2022/09/05 10:40:05;;;;;;;12.00;4.70;;;;;;;25.24;36.80;99902.27;105885;1278;99313;-65
2022/09/05 10:43:07;;;;;;;11.90;5.10;;;;;;;25.32;36.76;99897.05;105869;1277;96733;-64
2022/09/05 10:45:54;;;;;;;13.40;5.30;;;;;;;25.29;36.79;99898.73;105915;1280;114274;-64
2022/09/05 10:48:57;;;;;;;13.00;5.70;;;;;;;25.22;36.60;99898.48;106050;1277;99948;-65
2022/09/05 10:52:39;;;;;;;11.90;5.40;;;;;;;24.98;36.61;99900.64;105993;1278;106430;-65
2022/09/05 10:55:54;;;;;;;12.90;5.80;;;;;;;24.73;36.39;99901.64;105328;1284;99536;-62
2022/09/05 10:58:59;;;;;;;13.20;5.20;;;;;;;24.41;36.33;99899.41;105530;1284;96747;-64
2022/09/05 11:02:24;;;;;;;13.20;5.00;;;;;;;24.41;36.60;99894.70;105984;1277;114209;-64
2022/09/05 11:05:28;;;;;;;10.80;4.50;;;;;;;24.50;36.62;99895.46;105981;1277;96634;-64
2022/09/05 11:08:25;;;;;;;11.00;4.70;;;;;;;24.55;36.64;99893.91;105943;1277;109154;-66
2022/09/05 11:11:27;;;;;;;13.10;5.40;;;;;;;24.58;36.67;99895.06;105998;1277;99325;-64
2022/09/05 11:14:51;;;;;;;11.30;5.40;;;;;;;24.56;36.67;99895.45;106066;1277;99359;-65
2022/09/05 11:17:43;;;;;;;12.60;5.00;;;;;;;24.55;36.63;99888.73;105916;1277;114168;-64
2022/09/05 11:21:03;;;;;;;12.20;5.40;;;;;;;24.48;36.55;99887.48;105976;1276;97614;-65
2022/09/05 11:24:11;;;;;;;15.10;5.20;;;;;;;24.34;36.69;99879.00;105977;1277;109168;-64
2022/09/05 11:27:16;;;;;;;9.00;4.70;;;;;;;24.23;36.62;99878.85;106043;1277;99261;-65
2022/09/05 11:30:18;;;;;;;11.10;4.80;;;;;;;24.05;36.60;99873.47;105998;1277;99218;-66
2022/09/05 11:33:35;;;;;;;13.40;5.30;;;;;;;23.89;36.76;99876.96;105920;1277;111448;-65
2022/09/05 11:36:57;;;;;;;14.30;5.20;;;;;;;23.79;36.83;99875.70;105956;1277;99249;-65
2022/09/05 11:40:22;;;;;;;10.10;4.50;;;;;;;23.70;36.63;99875.72;105850;1277;109177;-66
2022/09/05 11:44:05;;;;;;;13.20;5.00;;;;;;;23.57;36.82;99870.70;106026;1278;99260;-64
2022/09/05 11:47:47;;;;;;;10.20;4.50;;;;;;;23.48;36.77;99874.77;106055;1276;96575;-65
2022/09/05 11:50:55;;;;;;;7.90;4.20;;;;;;;23.37;36.67;99874.38;106043;1278;111443;-65
2022/09/05 11:54:14;;;;;;;10.70;4.70;;;;;;;23.29;36.63;99878.33;106057;1277;99237;-64
2022/09/05 11:57:24;;;;;;;13.70;4.90;;;;;;;23.20;36.88;99876.10;106018;1277;109317;-64
2022/09/05 12:00:32;;;;;;;10.20;4.30;;;;;;;23.15;36.80;99871.98;106068;1277;99343;-66
2022/09/05 12:03:56;;;;;;;8.70;4.00;;;;;;;23.15;36.85;99867.06;106129;1277;96740;-66
2022/09/05 12:07:23;;;;;;;10.00;4.70;;;;;;;23.17;36.85;99867.15;106055;1277;111460;-66
2022/09/05 12:10:39;;;;;;;8.80;4.40;;;;;;;23.19;36.99;99868.57;105998;1277;99188;-65
2022/09/05 12:14:02;;;;;;;14.40;4.90;;;;;;;23.27;37.02;99864.42;105957;1277;106421;-65
2022/09/05 12:17:27;;;;;;;10.80;4.20;;;;;;;23.33;37.09;99868.61;106013;1277;98408;-66
2022/09/05 12:20:30;;;;;;;8.80;4.20;;;;;;;23.36;36.86;99863.99;105988;1277;96620;-65
2022/09/05 12:23:57;;;;;;;8.60;4.40;;;;;;;23.38;37.15;99864.70;105994;1277;111514;-65
2022/09/05 12:27:07;;;;;;;16.20;4.70;;;;;;;23.38;36.86;99860.05;105993;1277;99368;-68
2022/09/05 12:30:28;;;;;;;7.00;4.10;;;;;;;23.34;36.94;99858.48;105984;1277;106475;-65
2022/09/05 12:33:37;;;;;;;11.90;4.20;;;;;;;23.32;37.16;99854.00;105991;1277;97970;-64
2022/09/05 12:36:48;;;;;;;8.20;4.00;;;;;;;23.30;36.99;99852.92;105956;1277;99237;-64
2022/09/05 12:40:21;;;;;;;12.70;4.30;;;;;;;23.24;37.12;99847.48;105882;1280;113286;-64
2022/09/05 12:43:29;;;;;;;6.40;3.60;;;;;;;23.21;37.20;99844.86;105861;1277;99330;-65
2022/09/05 12:46:44;;;;;;;7.30;3.80;;;;;;;23.26;37.16;99844.83;105843;1278;109208;-66
2022/09/05 12:49:47;;;;;;;14.10;4.80;;;;;;;23.35;37.41;99841.33;105979;1277;99199;-67
2022/09/05 12:53:05;;;;;;;7.70;3.70;;;;;;;23.47;37.35;99834.86;105885;1277;99208;-63
2022/09/05 12:56:05;;;;;;;7.60;3.90;;;;;;;23.64;37.30;99832.56;105868;1277;114190;-64
2022/09/05 12:59:23;;;;;;;8.20;4.00;;;;;;;23.76;37.23;99828.06;105861;1278;98967;-66
2022/09/05 13:02:34;;;;;;;6.10;3.20;;;;;;;23.83;37.35;99827.52;105927;1278;108460;-66
2022/09/05 13:06:09;;;;;;;12.00;3.60;;;;;;;23.96;37.43;99819.98;106063;1277;99826;-64
2022/09/05 13:09:28;;;;;;;8.70;3.80;;;;;;;23.99;37.23;99819.74;106042;1277;99311;-64
2022/09/05 13:12:50;;;;;;;8.30;3.70;;;;;;;24.03;37.25;99823.95;106017;1277;114156;-67
2022/09/05 13:16:02;;;;;;;10.30;3.70;;;;;;;24.14;37.36;99826.66;106052;1277;96554;-67
2022/09/05 13:19:03;;;;;;;6.80;3.60;;;;;;;24.18;37.36;99821.23;105991;1277;106424;-65
2022/09/05 13:21:56;;;;;;;7.80;3.60;;;;;;;24.21;37.24;99818.16;105826;1277;100196;-66
2022/09/05 13:24:49;;;;;;;6.70;3.60;;;;;;;24.30;37.22;99818.62;106000;1277;99221;-65
2022/09/05 13:27:45;;;;;;;7.90;3.60;;;;;;;24.34;37.16;99814.47;105851;1277;110407;-66
2022/09/05 13:30:36;;;;;;;6.40;3.00;;;;;;;24.32;37.24;99818.84;105893;1277;97748;-66
2022/09/05 13:33:50;;;;;;;9.50;3.60;;;;;;;24.35;37.08;99815.05;106039;1277;109168;-65
2022/09/05 13:37:05;;;;;;;12.70;5.10;;;;;;;24.38;37.07;99813.59;105974;1277;99388;-66
2022/09/05 13:40:25;;;;;;;11.30;4.80;;;;;;;24.38;37.08;99817.43;105958;1277;99311;-68
2022/09/05 13:43:25;;;;;;;12.10;3.80;;;;;;;24.36;37.17;99823.42;105962;1277;111522;-76
2022/09/05 13:46:25;;;;;;;7.90;3.60;;;;;;;24.36;37.07;99818.64;106047;1277;99361;-73
2022/09/05 13:49:35;;;;;;;7.90;4.00;;;;;;;24.31;36.88;99817.17;105931;1277;109137;-72
2022/09/05 13:52:37;;;;;;;8.50;4.10;;;;;;;24.19;36.93;99813.05;105996;1277;99240;-71
2022/09/05 13:55:36;;;;;;;9.50;4.00;;;;;;;24.10;36.89;99814.91;106020;1277;96625;-71
2022/09/05 13:58:46;;;;;;;7.30;3.20;;;;;;;24.04;36.74;99813.67;105929;1277;111471;-71
2022/09/05 14:02:02;;;;;;;10.10;3.80;;;;;;;23.96;36.71;99819.27;106010;1277;96618;-70
2022/09/05 14:05:40;;;;;;;8.30;3.80;;;;;;;23.90;36.71;99818.52;105934;1277;106462;-71
2022/09/05 14:08:42;;;;;;;6.70;3.20;;;;;;;23.87;36.78;99819.02;106000;1276;99798;-70
2022/09/05 14:11:56;;;;;;;6.00;3.30;;;;;;;23.87;36.74;99810.14;106009;1277;99285;-71
2022/09/05 14:14:54;;;;;;;7.30;3.60;;;;;;;23.87;36.58;99811.61;105907;1278;111437;-73
2022/09/05 14:18:08;;;;;;;9.10;3.10;;;;;;;23.88;36.75;99807.73;105994;1277;99254;-71
2022/09/05 14:21:15;;;;;;;8.20;3.60;;;;;;;23.87;36.88;99803.27;105909;1277;109178;-69
2022/09/05 14:24:26;;;;;;;9.50;3.20;;;;;;;23.88;36.50;99806.08;105953;1277;100312;-70
2022/09/05 14:27:19;;;;;;;10.00;3.30;;;;;;;23.84;36.54;99806.84;105925;1277;97756;-65
2022/09/05 14:30:49;;;;;;;;;;;;;;;23.84;36.95;99808.10;106063;1277;113358;-67
2022/09/05 14:34:12;;;;;;;8.60;3.30;;;;;;;23.86;36.67;99806.18;105687;1279;99204;-65
2022/09/05 14:37:27;;;;;;;10.00;3.30;;;;;;;23.88;36.67;99804.14;105926;1277;108086;-65